Time;durP1;ratioP1;P1;durP2;ratioP2;P2;SDS_P1;SDS_P2;PMS_P1;PMS_P2;Temp;Humidity;BMP_temperature;BMP_pressure;BME280_temperature;BME280_humidity;BME280_pressure;Samples;Min_cycle;Max_cycle;Signal;HPM_P1;HPM_P2
2021/05/13 00:00:41;;;;;;;2.72;1.60;;;11.40;92.00;;;;;;5054234;28;20119;-77
2021/05/13 00:03:07;;;;;;;3.90;1.77;;;11.40;92.00;;;;;;5056442;28;20033;-77
2021/05/13 00:05:32;;;;;;;2.75;1.60;;;11.40;92.10;;;;;;5054464;28;20507;-77
2021/05/13 00:07:58;;;;;;;4.35;2.13;;;11.30;92.10;;;;;;5053713;28;20109;-77
2021/05/13 00:10:24;;;;;;;2.88;1.70;;;11.30;92.10;;;;;;5068974;28;20024;-77
2021/05/13 00:13:09;;;;;;;4.45;1.63;;;11.30;92.20;;;;;;5068629;28;20431;-77
2021/05/13 00:15:37;;;;;;;4.55;1.80;;;11.20;92.30;;;;;;5057672;28;20017;-77
2021/05/13 00:18:03;;;;;;;5.35;3.30;;;11.10;92.40;;;;;;5053758;28;20021;-77
2021/05/13 00:20:35;;;;;;;4.75;2.00;;;11.10;92.50;;;;;;5053929;28;20063;-77
2021/05/13 00:23:01;;;;;;;4.57;2.25;;;11.10;92.60;;;;;;5065530;28;20426;-77
2021/05/13 00:25:28;;;;;;;4.38;2.17;;;11.10;92.60;;;;;;5057602;28;20507;-77
2021/05/13 00:27:54;;;;;;;4.85;2.30;;;11.00;92.60;;;;;;5054779;28;20021;-77
2021/05/13 00:30:20;;;;;;;3.55;2.08;;;11.00;92.70;;;;;;5070990;28;20021;-77
2021/05/13 00:32:46;;;;;;;3.97;2.35;;;11.10;92.80;;;;;;5053910;28;20092;-77
2021/05/13 00:35:15;;;;;;;8.90;2.22;;;11.00;92.90;;;;;;5052267;28;20140;-77
2021/05/13 00:37:42;;;;;;;3.40;1.97;;;11.00;92.90;;;;;;5053037;28;20017;-77
2021/05/13 00:40:09;;;;;;;21.75;1.80;;;10.90;92.90;;;;;;5052587;28;20018;-77
2021/05/13 00:42:35;;;;;;;2.42;0.80;;;10.80;92.90;;;;;;5055549;28;20033;-77
2021/05/13 00:45:00;;;;;;;9.60;1.10;;;10.80;92.90;;;;;;5054012;28;20017;-77
2021/05/13 00:47:28;;;;;;;0.93;0.63;;;10.70;93.00;;;;;;5055758;28;20013;-77
2021/05/13 00:49:54;;;;;;;1.00;0.70;;;10.60;93.10;;;;;;5053768;28;20100;-77
2021/05/13 00:52:21;;;;;;;14.77;1.50;;;10.50;93.30;;;;;;5053877;28;20096;-77
2021/05/13 00:54:47;;;;;;;2.83;1.10;;;10.40;93.40;;;;;;5051425;28;20387;-77
2021/05/13 00:57:13;;;;;;;2.22;1.30;;;10.40;93.40;;;;;;5052429;28;20057;-77
2021/05/13 00:59:42;;;;;;;2.92;1.95;;;10.50;93.50;;;;;;5056892;28;20025;-77
2021/05/13 01:02:08;;;;;;;3.17;1.42;;;10.50;93.50;;;;;;5053110;28;20067;-77
2021/05/13 01:04:33;;;;;;;3.05;1.80;;;10.50;93.50;;;;;;5054170;28;20427;-77
2021/05/13 01:07:00;;;;;;;1.73;1.33;;;10.50;93.50;;;;;;5053430;28;20025;-77
2021/05/13 01:09:26;;;;;;;3.53;1.25;;;10.50;93.50;;;;;;5053864;28;20017;-77
2021/05/13 01:12:04;;;;;;;8.65;0.60;;;10.50;93.40;;;;;;5052604;28;20380;-77
2021/05/13 01:19:33;;;;;;;1.55;0.80;;;10.30;93.60;;;;;;5053044;28;20028;-77
2021/05/13 01:22:00;;;;;;;3.17;1.52;;;10.30;93.70;;;;;;5052669;28;20021;-77
2021/05/13 01:24:26;;;;;;;3.53;1.13;;;10.20;93.80;;;;;;5053323;28;20028;-77
2021/05/13 01:26:52;;;;;;;3.38;1.77;;;10.20;93.90;;;;;;5056068;28;20096;-77
2021/05/13 01:29:20;;;;;;;4.28;2.15;;;10.20;94.00;;;;;;5054124;28;20025;-77
2021/05/13 01:31:47;;;;;;;4.40;2.08;;;10.20;94.00;;;;;;5053369;28;20040;-77
2021/05/13 01:34:12;;;;;;;3.40;1.98;;;10.20;94.00;;;;;;5067156;28;20052;-77
2021/05/13 01:36:38;;;;;;;2.58;1.73;;;10.30;94.00;;;;;;5052668;28;20028;-77
2021/05/13 01:39:06;;;;;;;2.40;1.55;;;10.30;94.00;;;;;;5052444;28;20025;-77
2021/05/13 01:41:32;;;;;;;2.80;1.73;;;10.30;94.00;;;;;;5054608;28;20049;-77
2021/05/13 01:43:57;;;;;;;8.68;1.70;;;10.20;94.10;;;;;;5071814;28;20009;-77
2021/05/13 01:46:23;;;;;;;23.83;1.55;;;10.30;94.10;;;;;;5053638;28;20533;-77
2021/05/13 01:48:49;;;;;;;1.42;0.90;;;10.20;94.10;;;;;;5053819;28;20025;-77
2021/05/13 01:51:14;;;;;;;1.95;0.70;;;10.20;94.20;;;;;;5053805;28;20025;-77
2021/05/13 01:53:41;;;;;;;1.00;0.70;;;10.10;94.20;;;;;;5052334;28;20029;-77
2021/05/13 01:56:08;;;;;;;1.77;0.85;;;10.10;94.30;;;;;;5055898;28;20025;-77
2021/05/13 01:58:34;;;;;;;2.47;1.17;;;10.10;94.30;;;;;;5058192;28;20530;-77
2021/05/13 02:00:59;;;;;;;2.33;1.50;;;10.10;94.40;;;;;;5058602;28;20050;-77
2021/05/13 02:03:26;;;;;;;3.72;1.23;;;10.00;94.30;;;;;;5057283;28;20472;-77
2021/05/13 02:05:52;;;;;;;4.10;1.30;;;10.00;94.50;;;;;;5057673;28;20349;-78
2021/05/13 02:08:17;;;;;;;2.03;1.27;;;10.00;94.50;;;;;;5059463;28;20024;-77
2021/05/13 02:10:43;;;;;;;4.13;1.48;;;10.00;94.50;;;;;;5056464;28;20021;-77
2021/05/13 02:13:08;;;;;;;2.13;1.40;;;10.00;94.50;;;;;;5055972;28;20032;-77
2021/05/13 02:15:34;;;;;;;2.30;1.45;;;10.00;94.60;;;;;;5056483;28;20028;-77
2021/05/13 02:17:59;;;;;;;2.47;1.27;;;10.00;94.60;;;;;;5055959;28;20017;-77
2021/05/13 02:20:25;;;;;;;2.85;1.35;;;9.90;94.70;;;;;;5056547;28;20024;-77
2021/05/13 02:22:52;;;;;;;1.65;1.33;;;9.90;94.80;;;;;;5055355;28;20017;-77
2021/05/13 02:25:17;;;;;;;7.50;1.88;;;9.90;94.90;;;;;;5056153;28;20103;-77
2021/05/13 02:27:43;;;;;;;1.85;1.20;;;9.80;94.90;;;;;;5057335;28;20508;-77
2021/05/13 02:30:12;;;;;;;2.25;1.20;;;9.60;95.00;;;;;;5057553;28;20040;-77
2021/05/13 02:32:38;;;;;;;3.40;1.20;;;9.60;95.20;;;;;;5056764;28;20025;-77
2021/05/13 02:35:05;;;;;;;1.90;1.23;;;9.70;95.10;;;;;;5058532;28;20056;-77
2021/05/13 02:37:31;;;;;;;2.60;1.60;;;9.60;95.10;;;;;;5055955;28;20099;-77
2021/05/13 02:39:56;;;;;;;3.20;1.63;;;9.60;95.30;;;;;;5054967;28;20460;-77
2021/05/13 02:42:22;;;;;;;3.63;1.48;;;9.60;95.30;;;;;;5058039;28;20017;-77
2021/05/13 02:44:47;;;;;;;3.92;1.90;;;9.70;95.30;;;;;;5058964;28;20096;-77
2021/05/13 02:47:13;;;;;;;8.60;1.52;;;9.70;95.20;;;;;;5057633;28;20095;-77
2021/05/13 02:49:38;;;;;;;2.75;1.08;;;9.70;95.20;;;;;;5057883;28;20021;-77
2021/05/13 02:52:05;;;;;;;3.00;1.65;;;9.70;95.10;;;;;;5054301;28;20031;-77
2021/05/13 02:54:31;;;;;;;3.28;1.48;;;9.60;95.30;;;;;;5055773;28;20060;-77
2021/05/13 02:56:56;;;;;;;3.20;1.70;;;9.60;95.30;;;;;;5054667;28;20041;-77
2021/05/13 02:59:29;;;;;;;2.53;1.30;;;9.60;95.40;;;;;;5072186;28;20368;-77
2021/05/13 03:01:55;;;;;;;3.45;1.60;;;9.60;95.40;;;;;;5056693;28;20041;-77
2021/05/13 03:04:20;;;;;;;3.42;2.10;;;9.60;95.40;;;;;;5057485;28;20059;-77
2021/05/13 03:06:48;;;;;;;3.83;1.80;;;9.60;95.40;;;;;;5070237;28;20476;-77
2021/05/13 03:09:16;;;;;;;5.03;1.98;;;9.60;95.50;;;;;;5055777;28;20017;-77
2021/05/13 03:11:41;;;;;;;3.35;1.80;;;9.60;95.50;;;;;;5054917;28;20112;-77
2021/05/13 03:14:08;;;;;;;4.00;1.52;;;9.60;95.60;;;;;;5054396;28;20131;-77
2021/05/13 03:16:34;;;;;;;2.70;1.67;;;9.60;95.80;;;;;;5054785;28;20487;-77
2021/05/13 03:18:59;;;;;;;3.72;1.35;;;9.60;95.60;;;;;;5054675;28;20063;-77
2021/05/13 03:24:03;;;;;;;4.60;2.53;;;9.50;95.80;;;;;;5054490;28;20024;-77
2021/05/13 03:26:41;;;;;;;4.30;2.28;;;9.50;96.10;;;;;;5056458;28;20070;-77
2021/05/13 03:29:06;;;;;;;2.85;1.77;;;9.50;96.40;;;;;;5055964;28;20137;-77
2021/05/13 03:31:32;;;;;;;20.88;1.88;;;9.50;96.70;;;;;;5055445;28;20107;-77
2021/05/13 03:33:59;;;;;;;4.80;1.40;;;9.40;96.70;;;;;;5055902;28;20476;-77
2021/05/13 03:36:25;;;;;;;11.05;1.00;;;9.30;97.10;;;;;;5054572;28;20025;-77
2021/05/13 03:38:50;;;;;;;2.53;1.15;;;9.20;97.00;;;;;;5069865;28;20029;-77
2021/05/13 03:41:16;;;;;;;2.00;1.10;;;9.20;97.00;;;;;;5053797;28;20491;-77
2021/05/13 03:43:41;;;;;;;3.65;1.20;;;9.20;97.20;;;;;;5056448;28;20024;-77
2021/05/13 03:46:07;;;;;;;2.55;1.30;;;9.20;97.00;;;;;;5072807;28;20017;-77
2021/05/13 03:48:33;;;;;;;2.40;1.15;;;9.20;96.90;;;;;;5055144;28;20094;-77
2021/05/13 03:50:58;;;;;;;2.50;1.25;;;9.30;96.90;;;;;;5056144;28;20464;-77
2021/05/13 03:53:24;;;;;;;3.90;1.38;;;9.30;96.80;;;;;;5054286;28;20031;-77
2021/05/13 03:55:52;;;;;;;5.10;2.08;;;9.20;96.80;;;;;;5054150;28;20029;-77
2021/05/13 03:58:25;;;;;;;3.05;1.65;;;9.00;96.90;;;;;;5051972;28;20025;-77
2021/05/13 04:03:20;;;;;;;5.95;2.03;;;9.10;97.10;;;;;;5055655;28;20429;-77
2021/05/13 04:05:46;;;;;;;2.47;1.73;;;9.10;97.10;;;;;;5053326;28;20395;-77
2021/05/13 04:08:13;;;;;;;4.30;2.80;;;9.10;97.10;;;;;;5055790;28;20419;-77
2021/05/13 04:10:39;;;;;;;6.57;3.58;;;9.10;97.30;;;;;;5053965;28;20066;-77
2021/05/13 04:13:08;;;;;;;4.55;2.90;;;9.10;97.60;;;;;;5053985;28;20066;-77
2021/05/13 04:15:33;;;;;;;5.40;3.50;;;9.10;97.80;;;;;;5053046;28;20488;-77
2021/05/13 04:17:59;;;;;;;6.07;3.88;;;9.20;98.00;;;;;;5052816;28;20021;-77
2021/05/13 04:20:25;;;;;;;6.80;3.60;;;9.20;98.20;;;;;;5054396;28;20024;-77
2021/05/13 04:22:50;;;;;;;6.47;3.30;;;9.20;98.20;;;;;;5053382;28;20032;-77
2021/05/13 04:25:16;;;;;;;5.65;3.33;;;9.20;98.30;;;;;;5055260;28;20029;-77
2021/05/13 04:27:41;;;;;;;4.85;3.25;;;9.20;98.50;;;;;;5055130;28;20092;-77
2021/05/13 04:30:08;;;;;;;3.97;2.90;;;9.20;98.60;;;;;;5055115;28;20025;-77
2021/05/13 04:32:33;;;;;;;3.15;2.20;;;9.30;98.70;;;;;;5055459;28;20079;-77
2021/05/13 04:34:59;;;;;;;2.85;1.70;;;9.20;98.60;;;;;;5068799;28;20045;-77
2021/05/13 04:37:24;;;;;;;3.20;1.88;;;9.30;98.70;;;;;;5054382;28;20025;-77
2021/05/13 04:39:50;;;;;;;4.68;1.95;;;9.30;98.70;;;;;;5052964;28;20025;-77
2021/05/13 04:42:15;;;;;;;2.30;1.75;;;9.30;98.70;;;;;;5055081;28;20031;-77
2021/05/13 04:44:41;;;;;;;2.20;1.55;;;9.30;98.70;;;;;;5053659;28;20021;-77
2021/05/13 04:47:24;;;;;;;2.00;1.33;;;9.30;98.70;;;;;;5053615;28;20071;-77
2021/05/13 04:49:52;;;;;;;2.30;1.60;;;9.30;98.70;;;;;;5052641;28;20423;-77
2021/05/13 04:52:19;;;;;;;2.80;2.00;;;9.40;98.60;;;;;;5053364;28;20139;-77
2021/05/13 04:54:49;;;;;;;2.60;2.10;;;9.40;98.60;;;;;;5051669;28;20028;-77
2021/05/13 04:57:15;;;;;;;3.58;2.50;;;9.40;98.70;;;;;;5053035;28;20025;-77
2021/05/13 04:59:40;;;;;;;3.67;2.35;;;9.40;98.70;;;;;;5054997;28;20033;-77
2021/05/13 05:02:06;;;;;;;3.28;2.47;;;9.40;98.70;;;;;;5054750;28;20074;-77
2021/05/13 05:04:31;;;;;;;4.47;2.70;;;9.50;98.70;;;;;;5054943;28;20013;-77
2021/05/13 05:06:57;;;;;;;4.85;2.83;;;9.50;98.70;;;;;;5054065;28;20025;-77
2021/05/13 05:09:23;;;;;;;4.68;2.75;;;9.50;98.80;;;;;;5054532;28;20025;-77
2021/05/13 05:11:48;;;;;;;3.45;2.90;;;9.50;98.90;;;;;;5051679;28;20028;-77
2021/05/13 05:14:14;;;;;;;3.70;2.83;;;9.60;98.90;;;;;;5052705;28;20451;-77
2021/05/13 05:16:40;;;;;;;3.53;2.83;;;9.60;98.90;;;;;;5061231;28;20484;-77
2021/05/13 05:19:05;;;;;;;5.32;2.90;;;9.70;99.00;;;;;;5077168;28;20123;-77
2021/05/13 05:21:31;;;;;;;3.47;3.17;;;9.70;99.00;;;;;;5071811;28;20100;-76
2021/05/13 05:23:56;;;;;;;4.70;3.08;;;9.80;99.10;;;;;;5070922;28;20017;-76
2021/05/13 05:26:22;;;;;;;5.72;3.90;;;9.80;99.20;;;;;;5072778;28;20507;-76
2021/05/13 05:28:47;;;;;;;4.63;3.88;;;9.80;99.20;;;;;;5072669;28;20376;-76
2021/05/13 05:31:13;;;;;;;7.18;4.97;;;9.90;99.60;;;;;;5076769;28;20095;-76
2021/05/13 05:33:38;;;;;;;10.13;4.35;;;10.00;99.40;;;;;;5076721;28;20040;-76
2021/05/13 05:36:04;;;;;;;4.88;4.25;;;10.00;99.50;;;;;;5075294;28;20036;-76
2021/05/13 05:38:30;;;;;;;5.85;4.72;;;10.10;99.60;;;;;;5076695;28;20052;-76
2021/05/13 05:40:56;;;;;;;6.80;4.45;;;10.10;99.60;;;;;;5076637;28;20024;-76
2021/05/13 05:43:21;;;;;;;5.97;5.20;;;10.20;99.70;;;;;;5076624;28;20017;-76
2021/05/13 05:45:48;;;;;;;9.23;5.75;;;10.20;99.80;;;;;;5075199;28;20065;-76
2021/05/13 05:48:13;;;;;;;5.65;5.05;;;10.30;99.90;;;;;;5076177;28;20472;-76
2021/05/13 05:50:42;;;;;;;6.13;5.15;;;10.30;99.90;;;;;;5076508;28;20031;-76
2021/05/13 05:53:08;;;;;;;8.55;6.15;;;10.40;99.90;;;;;;5076210;28;20032;-76
2021/05/13 05:55:34;;;;;;;8.27;4.93;;;10.40;99.90;;;;;;5076381;28;20028;-76
2021/05/13 05:58:01;;;;;;;9.48;6.45;;;10.50;99.90;;;;;;5076255;28;20020;-76
2021/05/13 06:00:27;;;;;;;10.02;7.47;;;10.60;99.90;;;;;;5075077;28;20376;-76
2021/05/13 06:02:53;;;;;;;11.75;9.05;;;10.60;99.90;;;;;;5076333;28;20025;-76
2021/05/13 06:05:18;;;;;;;17.88;10.70;;;10.70;99.90;;;;;;5076149;28;20029;-75
2021/05/13 06:07:44;;;;;;;12.07;9.85;;;10.70;99.90;;;;;;5075950;28;20020;-75
2021/05/13 06:10:12;;;;;;;12.43;10.98;;;10.80;99.90;;;;;;5074884;28;20074;-75
2021/05/13 06:12:38;;;;;;;15.65;12.48;;;10.90;99.90;;;;;;5075483;28;20021;-77
2021/05/13 06:15:05;;;;;;;20.55;16.17;;;11.00;99.90;;;;;;5075560;28;20091;-76
2021/05/13 06:17:31;;;;;;;17.15;13.73;;;11.10;99.90;;;;;;5075406;28;20031;-78
2021/05/13 06:20:02;;;;;;;14.98;12.85;;;11.10;99.90;;;;;;5075396;28;20103;-77
2021/05/13 06:22:29;;;;;;;19.02;13.75;;;11.20;99.90;;;;;;5073914;28;20020;-78
2021/05/13 06:24:55;;;;;;;20.95;15.80;;;11.30;99.90;;;;;;5074784;28;20033;-76
2021/05/13 06:27:21;;;;;;;23.65;17.42;;;11.40;99.90;;;;;;5090900;28;20021;-76
2021/05/13 06:29:48;;;;;;;20.52;15.85;;;11.40;99.90;;;;;;5075285;28;20027;-76
2021/05/13 06:32:13;;;;;;;20.35;17.42;;;11.50;99.90;;;;;;5075330;28;20050;-75
2021/05/13 06:34:39;;;;;;;24.08;18.67;;;11.60;99.90;;;;;;5073885;28;20124;-76
2021/05/13 06:37:05;;;;;;;21.38;16.67;;;11.70;99.90;;;;;;5074844;28;20024;-75
2021/05/13 06:39:33;;;;;;;21.67;18.98;;;11.80;99.90;;;;;;5074396;28;20020;-76
2021/05/13 06:42:00;;;;;;;18.50;16.58;;;11.90;99.90;;;;;;5073508;28;20350;-75
2021/05/13 06:44:26;;;;;;;19.00;16.67;;;11.90;99.90;;;;;;5074290;28;20093;-75
2021/05/13 06:46:51;;;;;;;20.27;16.55;;;12.00;99.90;;;;;;5074920;28;20364;-75
2021/05/13 06:49:17;;;;;;;20.60;18.42;;;12.10;99.90;;;;;;5075010;28;20541;-75
2021/05/13 06:51:43;;;;;;;17.85;15.65;;;12.10;99.90;;;;;;5074961;28;20115;-75
2021/05/13 06:54:08;;;;;;;19.42;16.75;;;12.20;99.90;;;;;;5074648;28;20360;-75
2021/05/13 06:56:34;;;;;;;23.02;18.10;;;12.30;99.90;;;;;;5073499;28;20016;-75
2021/05/13 06:58:59;;;;;;;18.80;16.80;;;12.40;99.90;;;;;;5074719;28;20021;-75
2021/05/13 07:01:26;;;;;;;20.75;18.63;;;12.40;99.90;;;;;;5073453;28;20021;-75
2021/05/13 07:03:52;;;;;;;21.85;19.55;;;12.50;99.90;;;;;;5074647;28;20066;-75
2021/05/13 07:06:17;;;;;;;20.17;17.98;;;12.70;99.90;;;;;;5073318;28;20024;-75
2021/05/13 07:08:43;;;;;;;21.60;19.30;;;12.70;99.90;;;;;;5074497;28;20025;-75
2021/05/13 07:11:09;;;;;;;21.60;19.30;;;12.80;99.90;;;;;;5073147;28;20025;-75
2021/05/13 07:13:36;;;;;;;23.30;19.50;;;12.80;99.90;;;;;;5074566;28;20078;-75
2021/05/13 07:16:02;;;;;;;23.75;19.20;;;12.90;99.90;;;;;;5074362;28;20017;-75
2021/05/13 07:18:27;;;;;;;22.10;19.10;;;12.90;99.90;;;;;;5074154;28;20032;-75
2021/05/13 07:20:53;;;;;;;22.25;18.70;;;13.00;99.70;;;;;;5074322;28;20016;-75
2021/05/13 07:23:18;;;;;;;25.33;22.23;;;13.00;99.50;;;;;;5074171;28;20027;-75
2021/05/13 07:25:45;;;;;;;23.67;19.13;;;13.20;99.60;;;;;;5074252;28;20372;-75
2021/05/13 07:28:11;;;;;;;27.95;21.23;;;13.30;99.30;;;;;;5073877;28;20115;-76
2021/05/13 07:30:37;;;;;;;21.25;18.08;;;13.30;99.00;;;;;;5073283;28;20446;-76
2021/05/13 07:33:02;;;;;;;22.05;19.35;;;13.40;99.00;;;;;;5074261;28;20036;-76
2021/05/13 07:35:28;;;;;;;20.95;18.02;;;13.50;99.00;;;;;;5072865;28;20050;-75
2021/05/13 07:37:53;;;;;;;21.60;19.30;;;13.50;98.90;;;;;;5074298;28;20025;-75
2021/05/13 07:40:25;;;;;;;19.58;17.52;;;13.60;98.70;;;;;;5074073;28;20036;-75
2021/05/13 07:42:51;;;;;;;21.35;19.13;;;13.70;98.40;;;;;;5074354;28;20062;-75
2021/05/13 07:45:17;;;;;;;22.17;19.48;;;13.80;98.10;;;;;;5074080;28;20016;-76
2021/05/13 07:47:44;;;;;;;23.20;20.70;;;13.90;97.60;;;;;;5090400;28;20098;-76
2021/05/13 07:50:12;;;;;;;22.50;20.15;;;14.00;97.10;;;;;;5094281;28;20028;-76
2021/05/13 07:52:39;;;;;;;25.90;20.50;;;14.10;96.70;;;;;;5094124;28;20035;-76
2021/05/13 07:55:05;;;;;;;23.02;19.63;;;14.20;96.10;;;;;;5094101;28;20051;-76
2021/05/13 07:57:31;;;;;;;23.15;20.00;;;14.30;96.10;;;;;;5094298;28;20490;-75
2021/05/13 07:59:57;;;;;;;21.52;19.17;;;14.50;95.60;;;;;;5094076;28;20024;-76
2021/05/13 08:02:22;;;;;;;23.35;19.63;;;14.60;95.30;;;;;;5094026;28;20049;-75
2021/05/13 08:04:48;;;;;;;19.42;17.30;;;14.70;95.00;;;;;;5094234;28;20475;-76
2021/05/13 08:07:18;;;;;;;21.45;17.58;;;14.70;94.70;;;;;;5093963;28;20087;-75
2021/05/13 08:09:44;;;;;;;;;;;14.70;93.90;;;;;;5092094;28;20364;-76
2021/05/13 08:12:09;;;;;;;17.67;15.23;;;14.80;94.10;;;;;;5087099;28;20455;-75
2021/05/13 08:14:35;;;;;;;19.75;16.65;;;14.90;93.80;;;;;;5093916;28;20027;-75
2021/05/13 08:17:00;;;;;;;20.23;17.05;;;15.00;93.40;;;;;;5079145;28;20167;-76
2021/05/13 08:19:26;;;;;;;19.42;17.23;;;15.10;92.60;;;;;;5073618;28;20033;-75
2021/05/13 08:21:51;;;;;;;20.00;14.80;;;15.20;92.40;;;;;;5073656;28;20032;-76
2021/05/13 08:24:17;;;;;;;14.75;13.07;;;15.30;92.20;;;;;;5073441;28;20029;-76
2021/05/13 08:26:42;;;;;;;14.35;11.77;;;15.40;91.80;;;;;;5072205;28;20024;-76
2021/05/13 08:29:08;;;;;;;15.13;13.23;;;15.50;91.90;;;;;;5072771;28;20039;-76
2021/05/13 08:31:33;;;;;;;15.95;12.93;;;15.60;91.70;;;;;;5073073;28;20447;-76
2021/05/13 08:33:59;;;;;;;15.90;14.05;;;15.60;91.60;;;;;;5073285;28;20488;-75
2021/05/13 08:36:24;;;;;;;17.65;14.52;;;15.70;91.30;;;;;;5072893;28;20139;-75
2021/05/13 08:38:50;;;;;;;16.35;14.38;;;15.80;91.30;;;;;;5073234;28;20048;-75
2021/05/13 08:41:16;;;;;;;14.52;12.85;;;15.80;91.00;;;;;;5073131;28;20399;-76
2021/05/13 08:43:49;;;;;;;15.63;13.93;;;15.90;91.00;;;;;;5073257;28;20025;-75
2021/05/13 08:46:19;;;;;;;18.38;13.15;;;15.90;90.60;;;;;;5072884;28;20362;-75
2021/05/13 08:48:46;;;;;;;15.77;13.95;;;15.90;90.40;;;;;;5073398;28;20082;-75
2021/05/13 08:51:12;;;;;;;17.20;13.35;;;16.00;90.40;;;;;;5073221;28;20094;-76
2021/05/13 08:53:52;;;;;;;15.88;11.10;;;16.00;90.00;;;;;;5073143;28;20473;-76
2021/05/13 08:56:19;;;;;;;10.95;9.75;;;16.20;90.10;;;;;;5072788;28;20033;-76
2021/05/13 08:58:44;;;;;;;10.68;9.07;;;16.20;90.10;;;;;;5072975;28;20491;-76
2021/05/13 09:01:14;;;;;;;11.35;9.45;;;16.30;90.20;;;;;;5073034;28;20025;-75
2021/05/13 09:03:40;;;;;;;;;;;16.40;90.10;;;;;;5073042;28;20387;-76
2021/05/13 09:06:06;;;;;;;11.45;8.90;;;16.50;90.10;;;;;;5072692;28;19911;-76
2021/05/13 09:08:33;;;;;;;11.48;9.82;;;16.50;90.30;;;;;;5072931;28;20029;-76
2021/05/13 09:11:12;;;;;;;12.77;9.57;;;16.70;89.20;;;;;;5071596;28;20020;-76
2021/05/13 09:13:38;;;;;;;;;;;16.90;88.00;;;;;;5073324;28;20027;-76
2021/05/13 09:16:26;;;;;;;8.68;7.40;;;16.90;88.30;;;;;;5072730;28;19999;-76
2021/05/13 09:18:53;;;;;;;8.13;7.28;;;16.90;87.90;;;;;;5070864;28;20024;-77
2021/05/13 09:21:18;;;;;;;7.53;6.70;;;16.90;88.10;;;;;;5072206;28;20020;-76
2021/05/13 09:23:44;;;;;;;7.00;6.30;;;17.00;88.30;;;;;;5072276;28;20017;-76
2021/05/13 09:26:15;;;;;;;11.80;8.30;;;17.10;87.60;;;;;;5071141;28;20407;-76
2021/05/13 09:28:42;;;;;;;14.13;9.93;;;17.30;86.40;;;;;;5071609;28;20024;-76
2021/05/13 09:31:08;;;;;;;11.10;9.32;;;17.40;85.70;;;;;;5071412;28;20027;-76
2021/05/13 09:33:38;;;;;;;10.85;9.35;;;17.50;85.30;;;;;;5071456;28;20017;-76
2021/05/13 09:36:25;;;;;;;10.88;8.25;;;17.60;84.50;;;;;;5071007;28;20024;-76
2021/05/13 09:38:51;;;;;;;7.95;7.15;;;17.60;84.30;;;;;;5071529;28;20095;-76
2021/05/13 09:41:34;;;;;;;12.48;8.68;;;17.50;83.90;;;;;;5070250;28;20036;-76
2021/05/13 09:44:01;;;;;;;9.40;7.78;;;17.50;83.10;;;;;;5071597;28;20017;-76
2021/05/13 09:46:37;;;;;;;9.70;7.32;;;17.40;83.20;;;;;;5071178;28;20070;-76
2021/05/13 09:49:04;;;;;;;7.00;5.75;;;17.40;82.60;;;;;;5071956;28;20549;-76
2021/05/13 09:51:39;;;;;;;7.47;6.20;;;17.40;82.60;;;;;;5071266;28;20494;-76
2021/05/13 09:54:15;;;;;;;7.38;6.22;;;17.50;81.70;;;;;;5070215;28;20096;-76
2021/05/13 09:56:42;;;;;;;8.00;6.15;;;17.50;81.10;;;;;;5069932;28;20490;-77
2021/05/13 09:59:25;;;;;;;8.40;6.03;;;18.20;80.70;;;;;;5086682;28;20120;-77
2021/05/13 10:01:52;;;;;;;4.90;3.72;;;19.60;80.10;;;;;;5075870;28;20012;-76
2021/05/13 10:04:18;;;;;;;5.18;4.20;;;21.70;77.50;;;;;;5071322;28;20024;-77
2021/05/13 10:06:44;;;;;;;6.07;5.20;;;23.30;72.60;;;;;;5071327;28;20061;-77
2021/05/13 10:09:14;;;;;;;6.90;4.97;;;23.40;66.00;;;;;;5071364;28;20112;-77
2021/05/13 10:11:43;;;;;;;6.03;4.50;;;22.60;65.60;;;;;;5081166;28;20016;-77
2021/05/13 10:14:09;;;;;;;4.15;2.55;;;22.00;65.70;;;;;;5075503;28;20045;-77
2021/05/13 10:16:35;;;;;;;8.65;6.03;;;22.30;66.60;;;;;;5072110;28;20040;-77
2021/05/13 10:19:09;;;;;;;5.68;3.53;;;22.10;62.20;;;;;;5074424;28;20025;-77
2021/05/13 10:21:36;;;;;;;5.38;4.28;;;21.60;63.00;;;;;;5074715;28;20016;-76
2021/05/13 10:24:03;;;;;;;4.40;3.70;;;21.10;64.00;;;;;;5071534;28;20108;-76
2021/05/13 10:26:37;;;;;;;5.40;4.53;;;20.60;65.00;;;;;;5074558;28;20035;-76
2021/05/13 10:29:21;;;;;;;4.28;3.03;;;20.40;65.60;;;;;;5086941;28;20020;-77
2021/05/13 10:32:23;;;;;;;6.72;5.10;;;20.40;66.50;;;;;;5074582;28;20028;-76
2021/05/13 10:34:59;;;;;;;4.95;4.05;;;21.60;65.50;;;;;;5071518;28;20098;-76
2021/05/13 10:37:37;;;;;;;4.55;2.85;;;22.20;61.70;;;;;;5073740;28;20048;-76
2021/05/13 10:41:06;;;;;;;6.50;4.47;;;22.30;61.70;;;;;;5063336;28;20082;-76
2021/05/13 10:43:05;;;;;;;5.90;3.22;;;23.20;59.90;;;;;;5072143;28;20511;-77
2021/05/13 10:45:33;;;;;;;3.53;1.92;;;25.90;56.50;;;;;;5072153;28;20122;-77
2021/05/13 10:48:21;;;;;;;3.75;2.42;;;26.40;54.40;;;;;;5073328;28;20094;-77
2021/05/13 10:50:54;;;;;;;4.95;3.50;;;25.70;53.10;;;;;;5073355;28;20020;-83
2021/05/13 10:53:36;;;;;;;4.75;2.72;;;24.80;52.80;;;;;;5089195;28;20494;-82
2021/05/13 10:56:11;;;;;;;4.32;1.70;;;26.20;53.10;;;;;;5074013;28;20031;-76
2021/05/13 10:59:08;;;;;;;2.35;1.60;;;28.60;52.00;;;;;;5089008;28;20162;-77
2021/05/13 11:01:48;;;;;;;2.83;1.40;;;30.30;48.30;;;;;;5073917;28;20017;-74
2021/05/13 11:04:23;;;;;;;4.15;1.60;;;30.20;45.70;;;;;;5073489;28;20095;-73
2021/05/13 11:06:59;;;;;;;4.07;1.80;;;30.20;44.70;;;;;;5072036;28;20044;-73
2021/05/13 11:09:44;;;;;;;3.15;2.00;;;29.90;45.20;;;;;;5073450;28;20017;-75
2021/05/13 11:12:15;;;;;;;4.88;2.53;;;30.60;41.70;;;;;;5073104;28;20046;-74
2021/05/13 11:17:40;;;;;;;3.67;2.33;;;27.90;42.70;;;;;;5073653;28;20016;-74
2021/05/13 11:20:21;;;;;;;3.33;1.80;;;28.30;43.70;;;;;;5073378;28;20020;-74
2021/05/13 11:22:51;;;;;;;6.68;3.35;;;30.50;42.70;;;;;;5089156;28;20036;-75
2021/05/13 11:25:16;;;;;;;4.25;2.60;;;32.40;37.90;;;;;;5073339;28;20054;-74
2021/05/13 11:27:42;;;;;;;2.72;1.83;;;33.80;36.90;;;;;;5072735;28;20043;-75
2021/05/13 11:30:08;;;;;;;4.53;2.83;;;35.00;36.00;;;;;;5081896;28;20494;-75
2021/05/13 11:32:35;;;;;;;4.50;2.33;;;35.90;33.60;;;;;;5080096;28;20048;-75
2021/05/13 11:35:00;;;;;;;5.07;2.28;;;36.20;32.60;;;;;;5079744;28;20507;-75
2021/05/13 11:37:50;;;;;;;2.53;1.40;;;36.60;32.90;;;;;;5080728;28;20105;-75
2021/05/13 11:40:37;;;;;;;2.90;2.15;;;37.20;33.30;;;;;;5081185;28;20024;-75
2021/05/13 11:43:27;;;;;;;4.50;2.40;;;37.90;30.80;;;;;;5076873;28;20021;-75
2021/05/13 11:45:55;;;;;;;4.75;1.70;;;38.10;29.80;;;;;;5074675;28;20480;-75
2021/05/13 11:48:24;;;;;;;3.85;2.50;;;38.20;30.40;;;;;;5077582;28;20055;-75
2021/05/13 11:50:51;;;;;;;2.85;1.60;;;38.40;28.30;;;;;;5082832;28;20024;-74
2021/05/13 11:53:18;;;;;;;2.63;1.52;;;38.40;29.50;;;;;;5071990;28;20032;-76
2021/05/13 11:55:46;;;;;;;4.18;1.88;;;38.30;29.70;;;;;;5072357;28;20495;-76
2021/05/13 11:58:13;;;;;;;2.90;1.73;;;38.40;28.50;;;;;;5071837;28;20025;-76
2021/05/13 12:00:42;;;;;;;2.72;1.10;;;38.10;28.90;;;;;;5071847;28;20063;-76
2021/05/13 12:03:16;;;;;;;2.53;1.55;;;38.00;29.90;;;;;;5072101;28;20020;-75
2021/05/13 12:05:54;;;;;;;3.28;1.73;;;37.60;30.00;;;;;;5073220;28;20024;-76
2021/05/13 12:08:22;;;;;;;3.40;2.00;;;38.00;29.40;;;;;;5077927;28;20025;-76
2021/05/13 12:10:49;;;;;;;2.80;1.87;;;38.20;28.60;;;;;;5078478;28;20082;-76
2021/05/13 12:13:15;;;;;;;2.47;1.60;;;38.50;28.20;;;;;;5079748;28;20258;-76
2021/05/13 12:15:41;;;;;;;2.63;1.80;;;38.50;28.90;;;;;;5075699;28;20073;-81
2021/05/13 12:18:07;;;;;;;4.40;1.70;;;38.00;28.90;;;;;;5074981;28;20434;-76
2021/05/13 12:20:35;;;;;;;2.88;1.83;;;38.60;28.90;;;;;;5070019;28;20428;-77
2021/05/13 12:23:01;;;;;;;2.03;1.45;;;39.10;29.10;;;;;;5073797;28;20020;-76
2021/05/13 12:25:27;;;;;;;2.95;1.75;;;38.90;29.30;;;;;;5071650;28;20020;-75
2021/05/13 12:27:53;;;;;;;2.35;1.60;;;38.80;28.80;;;;;;5071508;28;20028;-75
2021/05/13 12:30:20;;;;;;;2.72;1.70;;;38.40;29.10;;;;;;5075753;28;20024;-76
2021/05/13 12:32:46;;;;;;;2.25;1.38;;;38.00;29.10;;;;;;5076316;28;20024;-76
2021/05/13 12:35:30;;;;;;;3.40;2.05;;;37.60;28.50;;;;;;5071562;28;20055;-76
2021/05/13 12:38:17;;;;;;;1.48;1.20;;;37.00;28.40;;;;;;5064766;28;20048;-76
2021/05/13 12:40:44;;;;;;;2.83;1.20;;;36.30;29.50;;;;;;5071505;28;20056;-76
2021/05/13 12:43:15;;;;;;;2.67;1.55;;;36.50;29.50;;;;;;5089719;28;20025;-76
2021/05/13 12:45:44;;;;;;;2.67;1.42;;;36.70;28.90;;;;;;5089391;28;20026;-76
2021/05/13 12:48:11;;;;;;;3.05;2.20;;;37.20;29.00;;;;;;5083766;28;20380;-76
2021/05/13 12:50:37;;;;;;;2.05;1.50;;;37.10;28.40;;;;;;5072117;28;20027;-76
2021/05/13 12:53:14;;;;;;;3.47;1.50;;;36.90;28.70;;;;;;5071939;28;20113;-76
2021/05/13 12:55:42;;;;;;;3.28;1.58;;;37.10;28.80;;;;;;5071825;28;20056;-76
2021/05/13 12:58:22;;;;;;;3.67;1.92;;;36.20;28.30;;;;;;5072013;28;20028;-76
2021/05/13 13:00:52;;;;;;;2.85;1.15;;;35.30;29.20;;;;;;5082972;28;20024;-76
2021/05/13 13:03:18;;;;;;;2.72;1.58;;;34.90;29.90;;;;;;5078541;28;20016;-76